ADDS TAF Board (Experimental) INFO Settings

IDs: Format: Expanded Condensed

KSLC - Salt Lake City Intl, UT, US

Issued at 0849 UTC 28 Apr 2015
Updated at: 1019 UTC 28 Apr 2015
Time0953Z 28/11Z 28/12Z 28/13Z 28/14Z 28/15Z 28/16Z 28/17Z 28/18Z 28/19Z 28/20Z 28/21Z 28/22Z 28/23Z
Type OBS PRVL PRVL PRVL PRVL PRVL PRVL PRVL PRVL PRVL PRVL PRVL PRVL PRVL
VIS 10 >6 >6 >6 >6 >6 >6 >6 >6 >6 >6 >6 >6 >6
CIG -- -- -- -- -- -- -- -- -- -- -- -- -- --
Cover CLR SKC SKC SKC SKC SKC SKC SKC SKC SKC SKC SKC SKC SKC
FltCat VFR VFR VFR VFR VFR VFR VFR VFR VFR VFR VFR VFR VFR VFR
WX -- -- -- -- -- -- -- -- -- -- -- -- -- --
WDir 130 150 150 150 150 150 150 150 150 320 320 320 320 320
WSpd 5 6 6 6 6 6 6 6 6 6 6 6 6 6
WGst -- -- -- -- -- -- -- -- -- -- -- -- -- --
R14/32
XWnd 2 0 0 0 0 0 0 0 0 -1 -1 -1 -1 -1
HWnd 5 6 6 6 6 6 6 6 6 -6 -6 -6 -6 -6
R16/34
XWnd 4 3 3 3 3 3 3 3 3 -3 -3 -3 -3 -3
HWnd 4 5 5 5 5 5 5 5 5 -5 -5 -5 -5 -5
R17/35
XWnd 4 3 3 3 3 3 3 3 3 -4 -4 -4 -4 -4
HWnd 3 5 5 5 5 5 5 5 5 -5 -5 -5 -5 -5
RHB/18
XWnd -4 -3 -3 -3 -3 -3 -3 -3 -3 4 4 4 4 4
HWnd -3 -5 -5 -5 -5 -5 -5 -5 -5 5 5 5 5 5

NOTE: TEMPO conditions in [brackets]. Keep in mind TEMPO conditions might be better (lower impact) than prevailing conditions.

Raw TAF
KSLC 280849Z 2809/2912 15006KT P6SM SKC
  FM281900 32006KT P6SM SKC
  FM290400 15007KT P6SM SKC


Raw METAR
KSLC 280953Z 13005KT 10SM CLR 08/03 A3023 RMK AO2 SLP216 T00780033
KSLC 280853Z 14006KT 10SM CLR 07/03 A3023 RMK AO2 SLP217 T00720033 50001
KSLC 280753Z 14006KT 10SM CLR 09/04 A3024 RMK AO2 SLP218 T00890039

METAR Board
Radar Display
Forecast Discussion

TAF Board Legend

Potential Impact
Threat None Slight Moderate High
Visibility (sm) ≥5.1 5.1>X≥3 3>X≥1 <1
Ceiling (100 ft) ≥30.1 30.1>X≥10 10>X≥5 <5
Wind Speed (kt) <10 10≤X<20 20≤X<30 ≥30
Wind Gust (kt) <15 15≤X<25 25≤X<35 ≥35
Weather No Wx Reported VCTS,-TS,-FZRA,SN TS,FZRA +TS,+FZRA,+SN